createdAt,value
2018-07-19T00:01:57.244Z,4.70
2018-07-19T00:04:26.984Z,5.00
2018-07-19T00:06:57.609Z,3.90
2018-07-19T00:09:27.510Z,3.80
2018-07-19T00:11:57.015Z,3.50
2018-07-19T00:14:25.789Z,4.00
2018-07-19T00:16:54.441Z,3.50
2018-07-19T00:19:23.557Z,3.53
2018-07-19T00:21:53.223Z,4.20
2018-07-19T00:24:23.685Z,4.60
2018-07-19T00:26:54.192Z,5.20
2018-07-19T00:29:23.674Z,4.53
2018-07-19T00:31:52.622Z,4.93
2018-07-19T00:34:21.004Z,4.60
2018-07-19T00:36:50.408Z,4.77
2018-07-19T00:39:20.679Z,4.80
2018-07-19T00:41:49.148Z,4.47
2018-07-19T00:44:18.822Z,5.20
2018-07-19T00:46:47.555Z,5.00
2018-07-19T00:49:17.405Z,4.47
2018-07-19T00:51:46.826Z,4.70
2018-07-19T00:54:17.751Z,5.83
2018-07-19T00:56:47.589Z,5.53
2018-07-19T00:59:17.781Z,5.43
2018-07-19T01:01:47.508Z,5.40
2018-07-19T01:04:16.985Z,4.77
2018-07-19T01:06:45.638Z,4.23
2018-07-19T01:09:15.484Z,5.23
2018-07-19T01:11:47.829Z,5.13
2018-07-19T01:14:17.939Z,5.73
2018-07-19T01:16:48.349Z,6.07
2018-07-19T01:19:16.783Z,6.60
2018-07-19T01:21:46.793Z,6.00
2018-07-19T01:24:17.238Z,5.10
2018-07-19T01:26:46.897Z,6.80
2018-07-19T01:29:15.359Z,4.67
2018-07-19T01:31:44.800Z,4.70
2018-07-19T01:34:15.515Z,5.10
2018-07-19T01:36:44.183Z,4.50
2018-07-19T01:39:13.499Z,5.83
2018-07-19T01:41:51.182Z,5.33
2018-07-19T01:44:22.936Z,4.80
2018-07-19T01:46:53.244Z,6.33
2018-07-19T01:49:22.111Z,7.53
2018-07-19T01:51:50.734Z,7.93
2018-07-19T01:54:22.186Z,8.00
2018-07-19T01:56:51.694Z,9.60
2018-07-19T01:59:21.166Z,5.20
2018-07-19T02:01:53.570Z,4.43
2018-07-19T02:04:24.058Z,5.70
2018-07-19T02:06:54.090Z,4.50
2018-07-19T02:09:23.783Z,4.60
2018-07-19T02:11:52.797Z,6.10
2018-07-19T02:14:22.390Z,5.77
2018-07-19T02:16:52.019Z,7.87
2018-07-19T02:19:20.835Z,7.93
2018-07-19T02:21:50.660Z,6.93
2018-07-19T02:24:20.434Z,7.70
2018-07-19T02:26:49.856Z,7.20
2018-07-19T02:29:18.280Z,8.00
2018-07-19T02:31:46.693Z,9.10
2018-07-19T02:34:15.175Z,8.17
2018-07-19T02:36:43.722Z,6.13
2018-07-19T02:39:13.286Z,5.60
2018-07-19T02:41:45.403Z,6.50
2018-07-19T02:44:17.304Z,7.47
2018-07-19T02:46:48.005Z,5.63
2018-07-19T02:49:16.308Z,6.10
2018-07-19T02:51:46.178Z,6.37
2018-07-19T02:54:14.741Z,6.37
2018-07-19T02:56:43.176Z,6.37
2018-07-19T02:59:11.609Z,6.50
2018-07-19T03:01:40.703Z,5.83
2018-07-19T03:04:09.253Z,7.90
2018-07-19T03:06:37.747Z,7.20
2018-07-19T03:09:07.463Z,6.97
2018-07-19T03:11:36.383Z,7.27
2018-07-19T03:14:04.888Z,8.23
2018-07-19T03:16:33.350Z,6.40
2018-07-19T03:19:01.767Z,7.87
2018-07-19T03:21:30.262Z,7.60
2018-07-19T03:23:58.733Z,8.10
2018-07-19T03:26:27.175Z,7.40
2018-07-19T03:28:55.568Z,8.63
2018-07-19T03:31:24.008Z,7.90
2018-07-19T03:33:52.478Z,8.10
2018-07-19T03:36:20.873Z,9.57
2018-07-19T03:38:49.302Z,8.87
2018-07-19T03:41:17.833Z,8.97
2018-07-19T03:43:46.234Z,9.20
2018-07-19T03:46:14.704Z,8.93
2018-07-19T03:48:43.106Z,8.80
2018-07-19T03:51:11.637Z,9.57
2018-07-19T03:53:40.109Z,9.17
2018-07-19T03:56:08.635Z,9.20
2018-07-19T03:58:37.183Z,9.40
2018-07-19T04:01:05.799Z,11.43
2018-07-19T04:03:34.447Z,9.57
2018-07-19T04:06:03.928Z,9.23
2018-07-19T04:08:32.599Z,10.90
2018-07-19T04:11:01.058Z,10.30
2018-07-19T04:13:29.432Z,9.93
2018-07-19T04:15:57.916Z,9.90
2018-07-19T04:18:26.346Z,10.03
2018-07-19T04:20:54.860Z,9.40
2018-07-19T04:23:23.576Z,9.43
2018-07-19T04:25:51.996Z,8.60
2018-07-19T04:28:20.525Z,9.20
2018-07-19T04:30:49.109Z,8.57
2018-07-19T04:33:18.514Z,10.50
2018-07-19T04:35:46.870Z,9.87
2018-07-19T04:38:15.509Z,9.57
2018-07-19T04:40:43.956Z,9.73
2018-07-19T04:43:12.410Z,11.23
2018-07-19T04:45:40.820Z,9.30
2018-07-19T04:48:09.301Z,9.30
2018-07-19T04:50:37.661Z,8.20
2018-07-19T04:53:06.206Z,8.50
2018-07-19T04:55:34.692Z,8.70
2018-07-19T04:58:03.326Z,7.13
2018-07-19T05:00:31.713Z,7.80
2018-07-19T05:03:00.177Z,7.70
2018-07-19T05:05:29.094Z,8.70
2018-07-19T05:07:57.623Z,7.70
2018-07-19T05:10:26.100Z,7.70
2018-07-19T05:12:54.476Z,8.60
2018-07-19T05:15:23.005Z,7.20
2018-07-19T05:17:51.530Z,8.27
2018-07-19T05:20:19.913Z,6.60
2018-07-19T05:22:48.445Z,7.67
2018-07-19T05:25:16.819Z,7.20
2018-07-19T05:27:45.397Z,7.13
2018-07-19T05:30:13.841Z,6.80
2018-07-19T05:32:42.221Z,6.47
2018-07-19T05:35:10.590Z,7.20
2018-07-19T05:37:38.992Z,7.00
2018-07-19T05:40:07.361Z,6.20
2018-07-19T05:42:35.989Z,6.73
2018-07-19T05:45:04.738Z,6.53
2018-07-19T05:47:32.956Z,6.10
2018-07-19T05:50:01.444Z,6.10
2018-07-19T05:52:29.938Z,6.40
2018-07-19T05:54:59.425Z,5.20
2018-07-19T05:57:27.876Z,5.30
2018-07-19T05:59:56.431Z,5.90
2018-07-19T06:02:24.977Z,6.00
2018-07-19T06:04:54.548Z,6.00
2018-07-19T06:07:23.147Z,5.47
2018-07-19T06:09:52.436Z,5.83
2018-07-19T06:12:21.122Z,5.70
2018-07-19T06:14:49.783Z,5.20
2018-07-19T06:17:18.274Z,4.70
2018-07-19T06:19:46.752Z,5.70
2018-07-19T06:22:15.271Z,5.00
2018-07-19T06:24:44.655Z,5.10
2018-07-19T06:27:14.449Z,5.73
2018-07-19T06:29:42.708Z,4.97
2018-07-19T06:32:11.252Z,4.63
2018-07-19T06:34:39.802Z,4.57
2018-07-19T06:37:08.386Z,4.27
2018-07-19T06:39:36.853Z,4.40
2018-07-19T06:42:05.482Z,3.53
2018-07-19T06:44:34.155Z,3.23
2018-07-19T06:47:02.782Z,3.53
2018-07-19T06:49:31.353Z,3.93
2018-07-19T06:52:00.081Z,3.90
2018-07-19T06:54:29.393Z,3.87
2018-07-19T06:56:57.847Z,3.60
2018-07-19T06:59:26.539Z,3.23
2018-07-19T07:01:56.276Z,3.80
2018-07-19T07:04:24.768Z,3.43
2018-07-19T07:06:53.301Z,2.70
2018-07-19T07:09:21.941Z,2.27
2018-07-19T07:11:50.425Z,2.53
2018-07-19T07:14:18.916Z,2.23
2018-07-19T07:16:47.236Z,2.20
2018-07-19T07:19:15.887Z,2.43
2018-07-19T07:21:44.298Z,1.97
2018-07-19T07:24:12.765Z,2.20
2018-07-19T07:26:41.188Z,2.23
2018-07-19T07:29:09.741Z,2.53
2018-07-19T07:31:37.874Z,2.90
2018-07-19T07:34:09.939Z,2.70
2018-07-19T07:36:38.328Z,2.20
2018-07-19T07:39:08.738Z,2.50
2018-07-19T07:41:40.848Z,2.33
2018-07-19T07:44:09.374Z,2.77
2018-07-19T07:46:38.102Z,2.60
2018-07-19T07:49:06.524Z,2.30
2018-07-19T07:51:34.987Z,1.93
2018-07-19T07:54:03.459Z,2.27
2018-07-19T07:56:32.057Z,1.73
2018-07-19T07:59:01.090Z,2.20
2018-07-19T08:01:29.515Z,2.03
2018-07-19T08:04:00.077Z,2.20
2018-07-19T08:06:28.751Z,2.00
2018-07-19T08:08:58.576Z,2.07
2018-07-19T08:11:27.181Z,2.30
2018-07-19T08:13:56.327Z,2.10
2018-07-19T08:16:25.627Z,1.90
2018-07-19T08:18:54.848Z,2.03
2018-07-19T08:21:23.211Z,1.90
2018-07-19T08:23:53.594Z,2.10
2018-07-19T08:26:22.131Z,2.00
2018-07-19T08:28:54.961Z,1.93
2018-07-19T08:31:23.297Z,1.73
2018-07-19T08:33:52.478Z,1.60
2018-07-19T08:36:21.409Z,2.10
2018-07-19T08:38:50.302Z,1.30
2018-07-19T08:41:20.384Z,1.87
2018-07-19T08:43:48.807Z,2.03
2018-07-19T08:46:17.855Z,2.17
2018-07-19T08:48:46.141Z,1.60
2018-07-19T08:51:15.085Z,2.47
2018-07-19T08:53:43.906Z,1.83
2018-07-19T08:56:14.895Z,2.00
2018-07-19T08:58:44.207Z,1.60
2018-07-19T09:01:13.030Z,1.90
2018-07-19T09:03:41.872Z,1.93
2018-07-19T09:06:11.566Z,1.97
2018-07-19T09:08:40.161Z,1.80
2018-07-19T09:11:09.846Z,1.93
2018-07-19T09:13:38.579Z,1.90
2018-07-19T09:16:07.174Z,2.03
2018-07-19T09:18:36.469Z,1.73
2018-07-19T09:21:05.565Z,1.70
2018-07-19T09:23:34.047Z,2.07
2018-07-19T09:26:02.793Z,1.87
2018-07-19T09:28:33.604Z,1.77
2018-07-19T09:31:02.150Z,1.60
2018-07-19T09:33:31.107Z,1.97
2018-07-19T09:35:59.463Z,1.50
2018-07-19T09:38:29.724Z,1.70
2018-07-19T09:40:58.140Z,1.60
2018-07-19T09:43:29.020Z,1.27
2018-07-19T09:45:57.533Z,1.73
2018-07-19T09:48:26.095Z,1.70
2018-07-19T09:50:56.148Z,1.40
2018-07-19T09:53:26.490Z,1.70
2018-07-19T09:55:56.571Z,1.70
2018-07-19T09:58:26.496Z,1.47
2018-07-19T10:01:00.250Z,1.63
2018-07-19T10:03:28.631Z,1.40
2018-07-19T10:05:57.195Z,1.40
2018-07-19T10:08:26.867Z,1.23
2018-07-19T10:10:57.129Z,1.30
2018-07-19T10:13:25.784Z,2.20
2018-07-19T10:15:54.524Z,2.57
2018-07-19T10:18:24.726Z,1.63
2018-07-19T10:20:54.911Z,2.00
2018-07-19T10:23:23.602Z,1.50
2018-07-19T10:25:53.435Z,1.97
2018-07-19T10:28:22.502Z,1.63
2018-07-19T10:30:52.446Z,1.73
2018-07-19T10:33:21.832Z,2.00
2018-07-19T10:35:52.705Z,1.73
2018-07-19T10:38:25.323Z,2.27
2018-07-19T10:40:55.045Z,2.33
2018-07-19T10:43:24.982Z,1.93
2018-07-19T10:45:55.986Z,2.53
2018-07-19T10:48:26.072Z,2.10
2018-07-19T10:50:55.045Z,1.90
2018-07-19T10:53:25.147Z,2.10
2018-07-19T10:55:53.626Z,1.83
2018-07-19T10:58:21.991Z,1.70
2018-07-19T11:00:51.718Z,1.90
2018-07-19T11:03:21.083Z,2.40
2018-07-19T11:05:49.953Z,1.90
2018-07-19T11:08:19.896Z,1.50
2018-07-19T11:10:50.380Z,1.70
2018-07-19T11:13:21.186Z,2.40
2018-07-19T11:15:51.964Z,1.90
2018-07-19T11:18:21.766Z,1.70
2018-07-19T11:20:50.867Z,2.10
2018-07-19T11:23:19.711Z,2.27
2018-07-19T11:25:50.495Z,2.70
2018-07-19T11:28:19.271Z,2.17
2018-07-19T11:30:47.874Z,2.33
2018-07-19T11:33:16.248Z,2.33
2018-07-19T11:35:45.197Z,1.97
2018-07-19T11:38:13.630Z,2.03
2018-07-19T11:40:42.102Z,1.77
2018-07-19T11:43:10.579Z,1.63
2018-07-19T11:45:38.924Z,1.90
2018-07-19T11:48:07.664Z,1.90
2018-07-19T11:50:36.078Z,2.37
2018-07-19T11:53:04.617Z,2.00
2018-07-19T11:55:33.149Z,2.40
2018-07-19T11:58:01.884Z,1.77
2018-07-19T12:00:30.350Z,2.00
2018-07-19T12:02:59.028Z,2.20
2018-07-19T12:05:27.628Z,2.20
2018-07-19T12:07:56.470Z,1.37
2018-07-19T12:10:24.939Z,2.10
2018-07-19T12:12:53.770Z,1.97
2018-07-19T12:15:22.203Z,2.20
2018-07-19T12:17:51.062Z,1.97
2018-07-19T12:20:19.596Z,1.97
2018-07-19T12:22:48.045Z,1.93
2018-07-19T12:25:16.503Z,1.95
2018-07-19T12:27:45.341Z,1.72
2018-07-19T12:30:14.168Z,1.65
2018-07-19T12:32:42.607Z,1.95
2018-07-19T12:35:11.694Z,1.90
2018-07-19T12:37:40.346Z,2.07
2018-07-19T12:40:08.982Z,1.50
2018-07-19T12:42:39.162Z,2.37
2018-07-19T12:45:08.068Z,2.00
2018-07-19T12:47:36.795Z,2.40
2018-07-19T12:50:06.008Z,1.97
2018-07-19T12:52:34.893Z,2.37
2018-07-19T12:55:03.472Z,2.30
2018-07-19T12:57:32.275Z,2.00
2018-07-19T13:00:00.690Z,1.87
2018-07-19T13:02:29.334Z,1.70
2018-07-19T13:04:57.893Z,2.00
2018-07-19T13:07:26.437Z,1.97
2018-07-19T13:09:54.904Z,2.20
2018-07-19T13:12:24.569Z,2.10
2018-07-19T13:14:52.920Z,2.17
2018-07-19T13:17:21.456Z,2.00
2018-07-19T13:19:49.917Z,2.37
2018-07-19T13:22:18.651Z,2.73
2018-07-19T13:24:47.507Z,2.70
2018-07-19T13:27:16.945Z,2.90
2018-07-19T13:29:45.412Z,2.40
2018-07-19T13:32:14.069Z,2.40
2018-07-19T13:34:42.631Z,2.67
2018-07-19T13:37:11.055Z,2.63
2018-07-19T13:39:39.719Z,2.67
2018-07-19T13:42:08.200Z,2.63
2018-07-19T13:44:37.147Z,2.50
2018-07-19T13:47:06.777Z,2.50
2018-07-19T13:49:35.180Z,2.70
2018-07-19T13:52:04.516Z,2.53
2018-07-19T13:54:42.354Z,2.30
2018-07-19T13:57:10.703Z,2.20
2018-07-19T13:59:39.433Z,1.80
2018-07-19T14:02:07.935Z,2.10
2018-07-19T14:04:36.475Z,2.50
2018-07-19T14:07:06.880Z,1.80
2018-07-19T14:09:36.038Z,2.27
2018-07-19T14:12:04.947Z,2.03
2018-07-19T14:14:33.438Z,1.80
2018-07-19T14:17:02.176Z,2.33
2018-07-19T14:19:31.595Z,2.20
2018-07-19T14:22:00.095Z,2.57
2018-07-19T14:24:28.566Z,2.00
2018-07-19T14:26:57.799Z,1.90
2018-07-19T14:29:27.119Z,1.70
2018-07-19T14:31:55.723Z,2.43
2018-07-19T14:34:24.300Z,2.50
2018-07-19T14:36:52.732Z,2.30
2018-07-19T14:39:21.278Z,2.97
2018-07-19T14:41:51.209Z,1.87
2018-07-19T14:44:19.889Z,2.20
2018-07-19T14:46:48.570Z,2.10
2018-07-19T14:49:16.945Z,2.50
2018-07-19T14:51:46.354Z,2.57
2018-07-19T14:54:15.036Z,2.50
2018-07-19T14:56:45.066Z,2.20
2018-07-19T14:59:14.467Z,3.10
2018-07-19T15:01:44.063Z,2.43
2018-07-19T15:04:13.265Z,2.60
2018-07-19T15:06:41.924Z,2.70
2018-07-19T15:09:12.188Z,3.20
2018-07-19T15:11:40.733Z,4.40
2018-07-19T15:14:09.459Z,3.10
2018-07-19T15:16:38.955Z,2.37
2018-07-19T15:19:08.818Z,2.80
2018-07-19T15:21:37.274Z,2.83
2018-07-19T15:24:05.980Z,2.60
2018-07-19T15:26:34.898Z,3.03
2018-07-19T15:29:03.677Z,3.17
2018-07-19T15:31:32.136Z,2.83
2018-07-19T15:34:01.610Z,2.93
2018-07-19T15:36:29.986Z,2.80
2018-07-19T15:38:58.596Z,3.20
2018-07-19T15:41:27.680Z,2.50
2018-07-19T15:43:56.212Z,3.10
2018-07-19T15:46:24.629Z,3.03
2018-07-19T15:48:53.425Z,3.70
2018-07-19T15:51:22.295Z,3.00
2018-07-19T15:53:51.664Z,2.90
2018-07-19T15:56:20.469Z,2.90
2018-07-19T15:58:49.798Z,2.83
2018-07-19T16:01:18.521Z,3.20
2018-07-19T16:03:47.313Z,3.30
2018-07-19T16:06:15.739Z,3.20
2018-07-19T16:08:45.156Z,2.90
2018-07-19T16:11:14.036Z,2.50
2018-07-19T16:13:42.503Z,3.10
2018-07-19T16:16:11.630Z,3.30
2018-07-19T16:18:40.065Z,3.80
2018-07-19T16:21:08.534Z,3.40
2018-07-19T16:23:38.134Z,3.60
2018-07-19T16:26:06.617Z,2.80
2018-07-19T16:28:35.018Z,2.70
2018-07-19T16:31:03.971Z,3.17
2018-07-19T16:33:32.417Z,3.70
2018-07-19T16:36:01.481Z,3.67
2018-07-19T16:38:29.992Z,3.10
2018-07-19T16:40:58.737Z,3.30
2018-07-19T16:43:27.282Z,3.27
2018-07-19T16:45:55.930Z,2.60
2018-07-19T16:48:24.427Z,3.50
2018-07-19T16:50:53.033Z,3.17
2018-07-19T16:53:23.800Z,3.40
2018-07-19T16:55:55.412Z,3.33
2018-07-19T16:58:24.414Z,3.43
2018-07-19T17:00:53.951Z,3.33
2018-07-19T17:03:24.562Z,3.20
2018-07-19T17:05:53.647Z,3.23
2018-07-19T17:08:22.571Z,3.40
2018-07-19T17:10:50.952Z,3.87
2018-07-19T17:13:19.976Z,3.60
2018-07-19T17:15:48.671Z,3.40
2018-07-19T17:18:17.325Z,3.17
2018-07-19T17:20:46.270Z,3.30
2018-07-19T17:23:15.372Z,3.97
2018-07-19T17:25:44.876Z,3.10
2018-07-19T17:28:13.577Z,4.00
2018-07-19T17:30:43.239Z,2.80
2018-07-19T17:33:12.196Z,3.57
2018-07-19T17:35:40.968Z,3.53
2018-07-19T17:38:09.482Z,3.97
2018-07-19T17:40:38.100Z,3.80
2018-07-19T17:43:06.738Z,3.80
2018-07-19T17:45:35.318Z,3.23
2018-07-19T17:48:03.689Z,3.90
2018-07-19T17:50:32.343Z,3.40
2018-07-19T17:53:00.918Z,3.77
2018-07-19T17:55:29.455Z,3.10
2018-07-19T17:57:59.261Z,3.53
2018-07-19T18:00:27.618Z,3.80
2018-07-19T18:02:56.204Z,3.40
2018-07-19T18:05:24.519Z,4.53
2018-07-19T18:07:53.015Z,4.63
2018-07-19T18:10:21.472Z,4.20
2018-07-19T18:12:50.129Z,3.67
2018-07-19T18:15:19.096Z,5.07
2018-07-19T18:17:47.774Z,3.17
2018-07-19T18:20:16.236Z,3.50
2018-07-19T18:22:44.684Z,3.33
2018-07-19T18:25:13.243Z,3.57
2018-07-19T18:27:42.203Z,3.07
2018-07-19T18:30:12.192Z,4.07
2018-07-19T18:32:42.170Z,3.20
2018-07-19T18:35:11.503Z,3.40
2018-07-19T18:37:40.332Z,2.90
2018-07-19T18:40:09.115Z,3.90
2018-07-19T18:42:37.845Z,3.30
2018-07-19T18:45:06.244Z,3.80
2018-07-19T18:47:34.644Z,3.60
2018-07-19T18:50:03.332Z,4.03
2018-07-19T18:52:31.850Z,3.30
2018-07-19T18:55:00.375Z,4.07
2018-07-19T18:57:29.398Z,3.67
2018-07-19T18:59:57.751Z,3.20
2018-07-19T19:02:26.165Z,3.40
2018-07-19T19:04:54.673Z,3.37
2018-07-19T19:07:23.987Z,4.07
2018-07-19T19:09:52.381Z,3.67
2018-07-19T19:12:20.771Z,3.40
2018-07-19T19:14:49.220Z,3.50
2018-07-19T19:17:17.650Z,3.90
2018-07-19T19:19:46.085Z,3.40
2018-07-19T19:22:14.715Z,3.50
2018-07-19T19:24:43.132Z,3.37
2018-07-19T19:27:11.558Z,2.90
2018-07-19T19:29:40.418Z,3.00
2018-07-19T19:32:09.019Z,2.93
2018-07-19T19:34:37.514Z,3.50
2018-07-19T19:37:06.225Z,2.97
2018-07-19T19:39:34.655Z,3.10
2018-07-19T19:42:03.077Z,3.53
2018-07-19T19:44:31.496Z,3.80
2018-07-19T19:47:00.004Z,3.90
2018-07-19T19:49:28.435Z,3.60
2018-07-19T19:51:57.667Z,4.07
2018-07-19T19:54:26.111Z,4.00
2018-07-19T19:56:54.614Z,3.23
2018-07-19T19:59:23.215Z,3.33
2018-07-19T20:01:52.728Z,4.23
2018-07-19T20:04:21.843Z,4.57
2018-07-19T20:06:50.303Z,3.63
2018-07-19T20:09:18.774Z,4.10
2018-07-19T20:11:47.289Z,4.13
2018-07-19T20:14:15.787Z,4.43
2018-07-19T20:16:44.318Z,4.50
2018-07-19T20:19:12.841Z,4.00
2018-07-19T20:21:41.261Z,4.17
2018-07-19T20:24:09.815Z,3.87
2018-07-19T20:26:39.419Z,4.10
2018-07-19T20:29:08.180Z,4.10
2018-07-19T20:31:36.780Z,4.50
2018-07-19T20:34:05.128Z,4.43
2018-07-19T20:36:34.090Z,4.03
2018-07-19T20:39:02.444Z,3.90
2018-07-19T20:41:30.954Z,4.63
2018-07-19T20:43:59.497Z,3.77
2018-07-19T20:46:27.843Z,4.17
2018-07-19T20:48:57.061Z,5.07
2018-07-19T20:51:26.574Z,4.33
2018-07-19T20:53:54.927Z,4.30
2018-07-19T20:56:23.363Z,4.27
2018-07-19T20:58:51.817Z,4.83
2018-07-19T21:01:20.257Z,5.30
2018-07-19T21:03:48.743Z,4.70
2018-07-19T21:06:17.540Z,4.50
2018-07-19T21:08:46.706Z,5.27
2018-07-19T21:11:15.185Z,4.40
2018-07-19T21:13:43.807Z,4.70
2018-07-19T21:16:12.248Z,4.87
2018-07-19T21:18:40.715Z,4.70
2018-07-19T21:21:09.110Z,4.70
2018-07-19T21:23:37.703Z,5.33
2018-07-19T21:26:06.227Z,5.00
2018-07-19T21:28:34.593Z,4.97
2018-07-19T21:31:03.683Z,5.37
2018-07-19T21:33:32.364Z,5.37
2018-07-19T21:36:01.300Z,5.27
2018-07-19T21:38:29.630Z,5.30
2018-07-19T21:40:58.011Z,4.87
2018-07-19T21:43:26.584Z,4.90
2018-07-19T21:45:54.940Z,6.20
2018-07-19T21:48:23.400Z,4.90
2018-07-19T21:50:51.730Z,5.67
2018-07-19T21:53:20.164Z,5.37
2018-07-19T21:55:49.396Z,5.60
2018-07-19T21:58:17.803Z,5.33
2018-07-19T22:00:50.287Z,5.10
2018-07-19T22:03:18.830Z,5.13
2018-07-19T22:05:47.491Z,4.80
2018-07-19T22:08:15.520Z,6.60
2018-07-19T22:10:43.958Z,5.10
2018-07-19T22:13:12.361Z,5.73
2018-07-19T22:15:40.827Z,5.20
2018-07-19T22:18:09.282Z,5.93
2018-07-19T22:20:37.984Z,5.13
2018-07-19T22:23:06.657Z,6.17
2018-07-19T22:25:34.997Z,5.93
2018-07-19T22:28:04.893Z,5.93
2018-07-19T22:30:33.427Z,5.70
2018-07-19T22:33:01.974Z,5.00
2018-07-19T22:35:30.447Z,6.73
2018-07-19T22:37:59.141Z,5.80
2018-07-19T22:40:28.372Z,5.40
2018-07-19T22:42:56.749Z,6.50
2018-07-19T22:45:25.584Z,7.10
2018-07-19T22:47:54.257Z,5.97
2018-07-19T22:50:22.830Z,7.20
2018-07-19T22:52:51.287Z,6.80
2018-07-19T22:55:20.339Z,5.60
2018-07-19T22:57:48.762Z,6.00
2018-07-19T23:00:17.178Z,6.63
2018-07-19T23:02:45.550Z,6.67
2018-07-19T23:05:14.044Z,6.53
2018-07-19T23:07:42.388Z,6.50
2018-07-19T23:10:10.757Z,6.53
2018-07-19T23:12:39.163Z,6.50
2018-07-19T23:15:08.070Z,5.93
2018-07-19T23:17:36.656Z,7.03
2018-07-19T23:20:05.137Z,7.33
2018-07-19T23:22:33.602Z,7.17
2018-07-19T23:25:01.941Z,7.63
2018-07-19T23:27:30.391Z,7.57
2018-07-19T23:29:58.876Z,7.33
2018-07-19T23:32:27.675Z,7.30
2018-07-19T23:34:56.224Z,7.20
2018-07-19T23:37:28.666Z,7.27
2018-07-19T23:40:01.133Z,8.00
2018-07-19T23:42:32.409Z,7.70
2018-07-19T23:45:04.910Z,7.80
2018-07-19T23:47:35.447Z,6.13
2018-07-19T23:50:04.331Z,6.77
2018-07-19T23:52:32.651Z,7.23
2018-07-19T23:55:01.038Z,6.83
2018-07-19T23:57:29.346Z,6.70
2018-07-19T23:59:57.844Z,6.93
